Pelagia — PGRQ — position and weather

sailwx.info

Track history (hours):
 
Tides and Currents Weather Stations Pressure Air Temp Water Temp Dewpoint Dewpoint Depression Visibility Wind Speed Wind Dir Waves Ship Positions

Oceanographic research ship Pelagia (Netherlands)

Detailed information on ship capabilities available from University of Delaware's Ocean Information Center and ARCUS's ALIAS (Arctic Logistics Information and Support) project.

Last reported at 2017-Mar-19 08:10 UTC. Time now 2017-Mar-26 03:28 UTC.
Position N 37°37' E 023°53'.

Length 66 m; beam 13 m.

Type: Other ship. MMSI: 244925000.

Date/timePositionNaut miles runAvg speedWind from/ knotsBaromVisibWave heightAir tempDewpointWater temp
2017-Mar-19 08:10N 37°37' E 023°53'9 9.2
2017-Mar-19 07:11N 37°39' E 023°42'6 9.8
2017-Mar-19 06:34N 37°45' E 023°39'9 9.4
2017-Mar-19 05:34N 37°54' E 023°37'3 0.1
2017-Mar-17 07:32N 37°58' E 023°37'6 4.5
2017-Mar-17 06:12N 37°52' E 023°38'4 5.8
2017-Mar-17 05:33N 37°49' E 023°41'7 6.8
2017-Mar-17 04:33N 37°43' E 023°45'  
2017-Mar-14 12:33N 36°40' E 014°33'8 8.0
2017-Mar-14 11:33N 36°43' E 014°24'8 7.8
2017-Mar-14 10:33N 36°47' E 014°15'8 8.1
2017-Mar-14 09:32N 36°51' E 014°06'8 8.0
2017-Mar-14 08:33N 36°54' E 013°58'8 7.6
2017-Mar-14 07:33N 36°57' E 013°49'8 7.5
2017-Mar-14 06:33N 37°01' E 013°41'  
2017-Mar-12 00:12N 37°58' E 004°46'14 8.3
2017-Mar-11 22:29N 37°57' E 004°28'72 8.1
2017-Mar-11 13:33N 37°43' E 002°59'48 8.0
2017-Mar-11 07:33N 37°28' E 002°01'8 8.2
2017-Mar-11 06:33N 37°26' E 001°51'10 8.5
2017-Mar-11 05:24N 37°23' E 001°39'11 8.8
2017-Mar-11 04:13N 37°20' E 001°26'39 8.3
2017-Mar-10 23:32N 37°09' E 000°40'8 8.2
2017-Mar-10 22:33N 37°06' E 000°30'16 8.2
2017-Mar-10 20:33N 37°00' E 000°11'269 9.0
2017-Mar-09 14:33N 36°00' W 005°15'1010.0
2017-Mar-09 13:33N 35°57' W 005°27'  
Track history (hours):
 
Tides and Currents Weather Stations Pressure Air Temp Water Temp Dewpoint Dewpoint Depression Visibility Wind Speed Wind Dir Waves Ship Positions

Oceanographic research ship Pelagia (Netherlands)

Detailed information on ship capabilities available from University of Delaware's Ocean Information Center and ARCUS's ALIAS (Arctic Logistics Information and Support) project.

Last reported at 2017-Mar-19 08:10 UTC. Time now 2017-Mar-26 03:28 UTC.
Position N 37°37' E 023°53'.

Length 66 m; beam 13 m.

Type: Other ship. MMSI: 244925000.

Date/timePositionNaut miles runAvg speedWind from/ knotsBaromVisibWave heightAir tempDewpointWater temp
2017-Mar-19 08:10N 37°37' E 023°53'9 9.2
2017-Mar-19 07:11N 37°39' E 023°42'6 9.8
2017-Mar-19 06:34N 37°45' E 023°39'9 9.4
2017-Mar-19 05:34N 37°54' E 023°37'3 0.1
2017-Mar-17 07:32N 37°58' E 023°37'6 4.5
2017-Mar-17 06:12N 37°52' E 023°38'4 5.8
2017-Mar-17 05:33N 37°49' E 023°41'7 6.8
2017-Mar-17 04:33N 37°43' E 023°45'  
2017-Mar-14 12:33N 36°40' E 014°33'8 8.0
2017-Mar-14 11:33N 36°43' E 014°24'8 7.8
2017-Mar-14 10:33N 36°47' E 014°15'8 8.1
2017-Mar-14 09:32N 36°51' E 014°06'8 8.0
2017-Mar-14 08:33N 36°54' E 013°58'8 7.6
2017-Mar-14 07:33N 36°57' E 013°49'8 7.5
2017-Mar-14 06:33N 37°01' E 013°41'  
2017-Mar-12 00:12N 37°58' E 004°46'14 8.3
2017-Mar-11 22:29N 37°57' E 004°28'72 8.1
2017-Mar-11 13:33N 37°43' E 002°59'48 8.0
2017-Mar-11 07:33N 37°28' E 002°01'8 8.2
2017-Mar-11 06:33N 37°26' E 001°51'10 8.5
2017-Mar-11 05:24N 37°23' E 001°39'11 8.8
2017-Mar-11 04:13N 37°20' E 001°26'39 8.3
2017-Mar-10 23:32N 37°09' E 000°40'8 8.2
2017-Mar-10 22:33N 37°06' E 000°30'16 8.2
2017-Mar-10 20:33N 37°00' E 000°11'269 9.0
2017-Mar-09 14:33N 36°00' W 005°15'1010.0
2017-Mar-09 13:33N 35°57' W 005°27'  

Dump ship's entire track history